sensor_id;sensor_type;location;lat;lon;timestamp;pressure;altitude;pressure_sealevel;temperature;humidity
30081;BME280;16902;50.816;12.828;2023-12-20T00:00:37;97393.19;;;3.11;100.00
30081;BME280;16902;50.816;12.828;2023-12-20T00:05:39;97387.25;;;3.10;100.00
30081;BME280;16902;50.816;12.828;2023-12-20T00:10:45;97386.56;;;3.08;100.00
30081;BME280;16902;50.816;12.828;2023-12-20T00:15:47;97387.53;;;3.07;100.00
30081;BME280;16902;50.816;12.828;2023-12-20T00:20:49;97379.16;;;3.05;100.00
30081;BME280;16902;50.816;12.828;2023-12-20T00:25:51;97367.22;;;3.04;100.00
30081;BME280;16902;50.816;12.828;2023-12-20T00:30:53;97368.88;;;3.05;100.00
30081;BME280;16902;50.816;12.828;2023-12-20T00:35:55;97363.56;;;3.06;100.00
30081;BME280;16902;50.816;12.828;2023-12-20T00:40:57;97357.91;;;3.03;100.00
30081;BME280;16902;50.816;12.828;2023-12-20T00:45:59;97342.63;;;3.01;100.00
30081;BME280;16902;50.816;12.828;2023-12-20T00:51:02;97355.63;;;3.00;100.00
30081;BME280;16902;50.816;12.828;2023-12-20T00:56:04;97343.69;;;2.99;100.00
30081;BME280;16902;50.816;12.828;2023-12-20T01:01:06;97335.19;;;2.98;100.00
30081;BME280;16902;50.816;12.828;2023-12-20T01:06:08;97346.41;;;2.97;100.00
30081;BME280;16902;50.816;12.828;2023-12-20T01:11:10;97338.72;;;2.97;100.00
30081;BME280;16902;50.816;12.828;2023-12-20T01:16:12;97342.66;;;2.92;100.00
30081;BME280;16902;50.816;12.828;2023-12-20T01:21:14;97333.19;;;2.92;100.00
30081;BME280;16902;50.816;12.828;2023-12-20T01:26:16;97344.44;;;2.91;100.00
30081;BME280;16902;50.816;12.828;2023-12-20T01:31:18;97346.31;;;2.89;100.00
30081;BME280;16902;50.816;12.828;2023-12-20T01:36:20;97340.78;;;2.84;100.00
30081;BME280;16902;50.816;12.828;2023-12-20T01:41:22;97332.00;;;2.87;100.00
30081;BME280;16902;50.816;12.828;2023-12-20T01:46:25;97325.66;;;2.81;100.00
30081;BME280;16902;50.816;12.828;2023-12-20T01:51:27;97328.50;;;2.78;100.00
30081;BME280;16902;50.816;12.828;2023-12-20T01:56:30;97327.16;;;2.74;100.00
30081;BME280;16902;50.816;12.828;2023-12-20T02:01:33;97317.19;;;2.71;100.00
30081;BME280;16902;50.816;12.828;2023-12-20T02:06:36;97310.41;;;2.70;100.00
30081;BME280;16902;50.816;12.828;2023-12-20T02:11:39;97302.69;;;2.70;100.00
30081;BME280;16902;50.816;12.828;2023-12-20T02:16:42;97300.13;;;2.70;100.00
30081;BME280;16902;50.816;12.828;2023-12-20T02:21:43;97295.56;;;2.64;100.00
30081;BME280;16902;50.816;12.828;2023-12-20T02:26:46;97298.94;;;2.64;100.00
30081;BME280;16902;50.816;12.828;2023-12-20T02:31:48;97298.66;;;2.67;100.00
30081;BME280;16902;50.816;12.828;2023-12-20T02:36:49;97288.22;;;2.69;100.00
30081;BME280;16902;50.816;12.828;2023-12-20T02:41:51;97282.56;;;2.65;100.00
30081;BME280;16902;50.816;12.828;2023-12-20T02:46:53;97287.56;;;2.67;100.00
30081;BME280;16902;50.816;12.828;2023-12-20T02:51:55;97287.56;;;2.67;100.00
30081;BME280;16902;50.816;12.828;2023-12-20T02:56:57;97288.66;;;2.64;100.00
30081;BME280;16902;50.816;12.828;2023-12-20T03:01:59;97294.09;;;2.61;100.00
30081;BME280;16902;50.816;12.828;2023-12-20T03:07:01;97278.66;;;2.61;100.00
30081;BME280;16902;50.816;12.828;2023-12-20T03:12:03;97268.38;;;2.61;100.00
30081;BME280;16902;50.816;12.828;2023-12-20T03:22:10;97266.91;;;2.58;100.00
30081;BME280;16902;50.816;12.828;2023-12-20T03:27:12;97279.59;;;2.60;100.00
30081;BME280;16902;50.816;12.828;2023-12-20T03:32:13;97273.66;;;2.60;100.00
30081;BME280;16902;50.816;12.828;2023-12-20T03:37:15;97260.94;;;2.58;100.00
30081;BME280;16902;50.816;12.828;2023-12-20T03:42:17;97261.91;;;2.57;100.00
30081;BME280;16902;50.816;12.828;2023-12-20T03:47:19;97273.81;;;2.58;100.00
30081;BME280;16902;50.816;12.828;2023-12-20T03:52:20;97268.94;;;2.55;100.00
30081;BME280;16902;50.816;12.828;2023-12-20T03:57:22;97270.53;;;2.56;100.00
30081;BME280;16902;50.816;12.828;2023-12-20T04:02:24;97271.09;;;2.60;100.00
30081;BME280;16902;50.816;12.828;2023-12-20T04:07:26;97274.47;;;2.60;100.00
30081;BME280;16902;50.816;12.828;2023-12-20T04:12:28;97270.28;;;2.59;100.00
30081;BME280;16902;50.816;12.828;2023-12-20T04:17:30;97269.47;;;2.58;100.00
30081;BME280;16902;50.816;12.828;2023-12-20T04:22:31;97268.25;;;2.63;100.00
30081;BME280;16902;50.816;12.828;2023-12-20T04:27:33;97270.00;;;2.62;100.00
30081;BME280;16902;50.816;12.828;2023-12-20T04:32:35;97271.47;;;2.65;100.00
30081;BME280;16902;50.816;12.828;2023-12-20T04:37:36;97277.28;;;2.67;100.00
30081;BME280;16902;50.816;12.828;2023-12-20T04:42:38;97280.66;;;2.67;100.00
30081;BME280;16902;50.816;12.828;2023-12-20T04:47:41;97288.22;;;2.69;100.00
30081;BME280;16902;50.816;12.828;2023-12-20T04:52:43;97292.41;;;2.70;100.00
30081;BME280;16902;50.816;12.828;2023-12-20T04:57:45;97291.75;;;2.68;100.00
30081;BME280;16902;50.816;12.828;2023-12-20T05:02:47;97285.66;;;2.69;100.00
30081;BME280;16902;50.816;12.828;2023-12-20T05:07:49;97283.09;;;2.69;100.00
30081;BME280;16902;50.816;12.828;2023-12-20T05:12:51;97298.78;;;2.66;100.00
30081;BME280;16902;50.816;12.828;2023-12-20T05:17:53;97307.28;;;2.76;100.00
30081;BME280;16902;50.816;12.828;2023-12-20T05:22:54;97289.94;;;2.78;100.00
30081;BME280;16902;50.816;12.828;2023-12-20T05:27:56;97285.88;;;2.75;100.00
30081;BME280;16902;50.816;12.828;2023-12-20T05:32:58;97298.63;;;2.77;100.00
30081;BME280;16902;50.816;12.828;2023-12-20T05:38:00;97304.56;;;2.77;100.00
30081;BME280;16902;50.816;12.828;2023-12-20T05:43:01;97300.22;;;2.78;100.00
30081;BME280;16902;50.816;12.828;2023-12-20T05:48:04;97323.09;;;2.81;100.00
30081;BME280;16902;50.816;12.828;2023-12-20T05:53:06;97317.25;;;2.79;100.00
30081;BME280;16902;50.816;12.828;2023-12-20T05:58:07;97331.59;;;2.81;100.00
30081;BME280;16902;50.816;12.828;2023-12-20T06:03:11;97317.66;;;2.84;100.00
30081;BME280;16902;50.816;12.828;2023-12-20T06:08:13;97323.31;;;2.88;100.00
30081;BME280;16902;50.816;12.828;2023-12-20T06:13:15;97328.84;;;2.93;100.00
30081;BME280;16902;50.816;12.828;2023-12-20T06:18:17;97329.50;;;2.95;100.00
30081;BME280;16902;50.816;12.828;2023-12-20T06:23:18;97330.56;;;3.02;100.00
30081;BME280;16902;50.816;12.828;2023-12-20T06:28:20;97338.00;;;3.05;100.00
30081;BME280;16902;50.816;12.828;2023-12-20T06:33:22;97347.03;;;3.09;100.00
30081;BME280;16902;50.816;12.828;2023-12-20T06:38:24;97344.34;;;3.11;100.00
30081;BME280;16902;50.816;12.828;2023-12-20T06:43:26;97355.28;;;3.13;100.00
30081;BME280;16902;50.816;12.828;2023-12-20T06:48:46;97348.66;;;3.10;100.00
30081;BME280;16902;50.816;12.828;2023-12-20T06:53:48;97359.09;;;3.08;100.00
30081;BME280;16902;50.816;12.828;2023-12-20T06:58:50;97370.59;;;3.04;100.00
30081;BME280;16902;50.816;12.828;2023-12-20T07:03:52;97372.91;;;3.07;100.00
30081;BME280;16902;50.816;12.828;2023-12-20T07:08:53;97376.97;;;3.10;100.00
30081;BME280;16902;50.816;12.828;2023-12-20T07:13:55;97384.53;;;3.12;100.00
30081;BME280;16902;50.816;12.828;2023-12-20T07:18:57;97392.25;;;3.12;100.00
30081;BME280;16902;50.816;12.828;2023-12-20T07:23:59;97388.88;;;3.11;100.00
30081;BME280;16902;50.816;12.828;2023-12-20T07:29:01;97377.88;;;3.09;100.00
30081;BME280;16902;50.816;12.828;2023-12-20T07:34:02;97400.91;;;3.11;100.00
30081;BME280;16902;50.816;12.828;2023-12-20T07:39:04;97383.41;;;3.14;100.00
30081;BME280;16902;50.816;12.828;2023-12-20T07:44:06;97389.91;;;3.18;100.00
30081;BME280;16902;50.816;12.828;2023-12-20T07:49:08;97380.16;;;3.22;100.00
30081;BME280;16902;50.816;12.828;2023-12-20T07:54:11;97385.47;;;3.11;100.00
30081;BME280;16902;50.816;12.828;2023-12-20T07:59:13;97392.66;;;3.07;100.00
30081;BME280;16902;50.816;12.828;2023-12-20T08:04:30;97394.53;;;3.15;100.00
30081;BME280;16902;50.816;12.828;2023-12-20T08:09:32;97378.19;;;3.33;100.00
30081;BME280;16902;50.816;12.828;2023-12-20T08:14:35;97387.34;;;3.46;100.00
30081;BME280;16902;50.816;12.828;2023-12-20T08:19:36;97401.22;;;3.53;100.00
30081;BME280;16902;50.816;12.828;2023-12-20T08:24:38;97400.00;;;3.57;100.00
30081;BME280;16902;50.816;12.828;2023-12-20T08:29:40;97404.34;;;3.56;100.00
30081;BME280;16902;50.816;12.828;2023-12-20T08:34:42;97400.06;;;3.47;100.00
30081;BME280;16902;50.816;12.828;2023-12-20T08:39:45;97406.78;;;3.30;100.00
30081;BME280;16902;50.816;12.828;2023-12-20T08:44:47;97406.28;;;3.17;100.00
30081;BME280;16902;50.816;12.828;2023-12-20T08:49:48;97403.06;;;3.15;100.00
30081;BME280;16902;50.816;12.828;2023-12-20T08:54:50;97406.41;;;3.25;100.00
30081;BME280;16902;50.816;12.828;2023-12-20T08:59:53;97418.50;;;3.43;100.00
30081;BME280;16902;50.816;12.828;2023-12-20T09:04:55;97413.44;;;3.51;100.00
30081;BME280;16902;50.816;12.828;2023-12-20T09:09:58;97418.88;;;3.48;100.00
30081;BME280;16902;50.816;12.828;2023-12-20T09:15:00;97419.13;;;3.54;100.00
30081;BME280;16902;50.816;12.828;2023-12-20T09:20:04;97410.88;;;3.51;100.00
30081;BME280;16902;50.816;12.828;2023-12-20T09:25:10;97416.41;;;3.56;100.00
30081;BME280;16902;50.816;12.828;2023-12-20T09:30:13;97405.03;;;3.76;100.00
30081;BME280;16902;50.816;12.828;2023-12-20T09:35:26;97410.97;;;3.77;100.00
30081;BME280;16902;50.816;12.828;2023-12-20T09:40:28;97395.03;;;3.91;100.00
30081;BME280;16902;50.816;12.828;2023-12-20T09:45:31;97393.72;;;4.05;100.00
30081;BME280;16902;50.816;12.828;2023-12-20T09:50:33;97400.63;;;4.40;100.00
30081;BME280;16902;50.816;12.828;2023-12-20T09:55:36;97392.38;;;4.36;100.00
30081;BME280;16902;50.816;12.828;2023-12-20T10:00:38;97396.13;;;4.24;100.00
30081;BME280;16902;50.816;12.828;2023-12-20T10:05:43;97392.22;;;4.20;100.00
30081;BME280;16902;50.816;12.828;2023-12-20T10:10:45;97383.25;;;4.24;100.00
30081;BME280;16902;50.816;12.828;2023-12-20T10:15:49;97367.13;;;4.22;100.00
30081;BME280;16902;50.816;12.828;2023-12-20T10:20:52;97364.94;;;4.27;100.00
30081;BME280;16902;50.816;12.828;2023-12-20T10:26:00;97362.78;;;4.23;100.00
30081;BME280;16902;50.816;12.828;2023-12-20T10:31:02;97366.47;;;4.20;100.00
30081;BME280;16902;50.816;12.828;2023-12-20T10:36:05;97356.38;;;4.27;100.00
30081;BME280;16902;50.816;12.828;2023-12-20T10:41:07;97356.22;;;4.28;100.00
30081;BME280;16902;50.816;12.828;2023-12-20T10:46:11;97337.75;;;4.33;100.00
30081;BME280;16902;50.816;12.828;2023-12-20T10:51:17;97323.72;;;4.09;100.00
30081;BME280;16902;50.816;12.828;2023-12-20T10:56:20;97321.16;;;4.96;100.00
30081;BME280;16902;50.816;12.828;2023-12-20T11:01:26;97324.97;;;4.83;100.00
30081;BME280;16902;50.816;12.828;2023-12-20T11:12:05;97316.53;;;4.65;100.00
30081;BME280;16902;50.816;12.828;2023-12-20T11:17:11;97320.31;;;4.87;100.00
30081;BME280;16902;50.816;12.828;2023-12-20T11:22:22;97308.69;;;4.75;100.00
30081;BME280;16902;50.816;12.828;2023-12-20T11:27:24;97314.47;;;4.77;100.00
30081;BME280;16902;50.816;12.828;2023-12-20T11:37:35;97314.25;;;4.96;100.00
30081;BME280;16902;50.816;12.828;2023-12-20T11:42:38;97300.81;;;4.84;100.00
30081;BME280;16902;50.816;12.828;2023-12-20T11:47:46;97291.44;;;4.83;100.00
30081;BME280;16902;50.816;12.828;2023-12-20T11:52:50;97303.44;;;5.01;100.00
30081;BME280;16902;50.816;12.828;2023-12-20T11:57:53;97296.94;;;5.31;100.00
30081;BME280;16902;50.816;12.828;2023-12-20T12:02:57;97281.00;;;5.44;100.00
30081;BME280;16902;50.816;12.828;2023-12-20T12:07:59;97290.38;;;5.61;100.00
30081;BME280;16902;50.816;12.828;2023-12-20T12:13:01;97283.13;;;5.56;100.00
30081;BME280;16902;50.816;12.828;2023-12-20T12:18:03;97269.88;;;5.59;100.00
30081;BME280;16902;50.816;12.828;2023-12-20T12:23:06;97265.19;;;5.55;100.00
30081;BME280;16902;50.816;12.828;2023-12-20T12:28:08;97248.41;;;5.43;100.00
30081;BME280;16902;50.816;12.828;2023-12-20T12:33:11;97232.09;;;5.34;100.00
30081;BME280;16902;50.816;12.828;2023-12-20T12:38:13;97233.53;;;5.36;100.00
30081;BME280;16902;50.816;12.828;2023-12-20T12:43:17;97218.22;;;5.43;100.00
30081;BME280;16902;50.816;12.828;2023-12-20T12:48:19;97209.66;;;5.26;100.00
30081;BME280;16902;50.816;12.828;2023-12-20T12:53:21;97193.50;;;5.16;100.00
30081;BME280;16902;50.816;12.828;2023-12-20T12:58:23;97183.22;;;5.24;100.00
30081;BME280;16902;50.816;12.828;2023-12-20T13:03:27;97174.19;;;5.28;100.00
30081;BME280;16902;50.816;12.828;2023-12-20T13:08:29;97180.16;;;5.29;100.00
30081;BME280;16902;50.816;12.828;2023-12-20T13:13:31;97182.75;;;5.37;100.00
30081;BME280;16902;50.816;12.828;2023-12-20T13:18:33;97174.16;;;5.20;100.00
30081;BME280;16902;50.816;12.828;2023-12-20T13:23:35;97162.41;;;5.34;100.00
30081;BME280;16902;50.816;12.828;2023-12-20T13:28:41;97154.66;;;5.18;100.00
30081;BME280;16902;50.816;12.828;2023-12-20T13:33:43;97155.13;;;5.21;100.00
30081;BME280;16902;50.816;12.828;2023-12-20T13:38:45;97143.06;;;5.13;100.00
30081;BME280;16902;50.816;12.828;2023-12-20T13:43:47;97143.66;;;5.07;100.00
30081;BME280;16902;50.816;12.828;2023-12-20T13:48:49;97135.78;;;5.01;100.00
30081;BME280;16902;50.816;12.828;2023-12-20T13:53:51;97134.81;;;5.02;100.00
30081;BME280;16902;50.816;12.828;2023-12-20T13:58:53;97131.06;;;4.88;100.00
30081;BME280;16902;50.816;12.828;2023-12-20T14:03:55;97159.47;;;4.96;100.00
30081;BME280;16902;50.816;12.828;2023-12-20T14:08:57;97151.25;;;4.84;100.00
30081;BME280;16902;50.816;12.828;2023-12-20T14:13:59;97144.78;;;4.80;100.00
30081;BME280;16902;50.816;12.828;2023-12-20T14:19:01;97149.28;;;4.78;100.00
30081;BME280;16902;50.816;12.828;2023-12-20T14:24:05;97157.00;;;4.78;100.00
30081;BME280;16902;50.816;12.828;2023-12-20T14:29:07;97163.13;;;4.77;100.00
30081;BME280;16902;50.816;12.828;2023-12-20T14:34:09;97147.97;;;4.66;100.00
30081;BME280;16902;50.816;12.828;2023-12-20T14:39:11;97139.56;;;4.64;100.00
30081;BME280;16902;50.816;12.828;2023-12-20T14:44:14;97146.50;;;4.55;100.00
30081;BME280;16902;50.816;12.828;2023-12-20T14:49:16;97141.28;;;4.39;100.00
30081;BME280;16902;50.816;12.828;2023-12-20T14:54:18;97154.28;;;4.29;100.00
30081;BME280;16902;50.816;12.828;2023-12-20T14:59:22;97146.66;;;4.20;100.00
30081;BME280;16902;50.816;12.828;2023-12-20T15:04:24;97138.75;;;4.13;100.00
30081;BME280;16902;50.816;12.828;2023-12-20T15:09:30;97146.78;;;4.10;100.00
30081;BME280;16902;50.816;12.828;2023-12-20T15:14:32;97150.34;;;4.09;100.00
30081;BME280;16902;50.816;12.828;2023-12-20T15:19:34;97154.69;;;4.08;100.00
30081;BME280;16902;50.816;12.828;2023-12-20T15:24:37;97159.84;;;4.08;100.00
30081;BME280;16902;50.816;12.828;2023-12-20T15:29:43;97149.03;;;4.05;100.00
30081;BME280;16902;50.816;12.828;2023-12-20T15:34:45;97139.34;;;3.99;100.00
30081;BME280;16902;50.816;12.828;2023-12-20T15:39:47;97154.78;;;3.99;100.00
30081;BME280;16902;50.816;12.828;2023-12-20T15:44:49;97144.78;;;3.96;100.00
30081;BME280;16902;50.816;12.828;2023-12-20T15:49:51;97125.66;;;3.98;100.00
30081;BME280;16902;50.816;12.828;2023-12-20T15:54:53;97117.78;;;4.00;100.00
30081;BME280;16902;50.816;12.828;2023-12-20T15:59:55;97124.06;;;3.97;100.00
30081;BME280;16902;50.816;12.828;2023-12-20T16:04:56;97114.38;;;3.99;100.00
30081;BME280;16902;50.816;12.828;2023-12-20T16:09:58;97125.00;;;3.96;100.00
30081;BME280;16902;50.816;12.828;2023-12-20T16:15:02;97125.66;;;3.98;100.00
30081;BME280;16902;50.816;12.828;2023-12-20T16:20:05;97138.25;;;4.01;100.00
30081;BME280;16902;50.816;12.828;2023-12-20T16:25:07;97140.66;;;4.03;100.00
30081;BME280;16902;50.816;12.828;2023-12-20T16:30:10;97136.00;;;4.06;100.00
30081;BME280;16902;50.816;12.828;2023-12-20T16:35:11;97136.81;;;4.07;100.00
30081;BME280;16902;50.816;12.828;2023-12-20T16:40:13;97133.28;;;4.08;100.00
30081;BME280;16902;50.816;12.828;2023-12-20T16:45:15;97140.19;;;4.07;100.00
30081;BME280;16902;50.816;12.828;2023-12-20T16:50:17;97146.94;;;4.08;100.00
30081;BME280;16902;50.816;12.828;2023-12-20T16:55:19;97136.81;;;4.15;100.00
30081;BME280;16902;50.816;12.828;2023-12-20T17:00:21;97149.25;;;4.20;100.00
30081;BME280;16902;50.816;12.828;2023-12-20T17:05:24;97138.00;;;4.21;100.00
30081;BME280;16902;50.816;12.828;2023-12-20T17:10:26;97136.88;;;4.23;100.00
30081;BME280;16902;50.816;12.828;2023-12-20T17:15:27;97134.81;;;4.27;100.00
30081;BME280;16902;50.816;12.828;2023-12-20T17:20:29;97136.25;;;4.29;100.00
30081;BME280;16902;50.816;12.828;2023-12-20T17:25:31;97125.63;;;4.32;100.00
30081;BME280;16902;50.816;12.828;2023-12-20T17:30:33;97123.34;;;4.29;100.00
30081;BME280;16902;50.816;12.828;2023-12-20T17:35:36;97138.19;;;4.27;100.00
30081;BME280;16902;50.816;12.828;2023-12-20T17:40:37;97130.28;;;4.29;100.00
30081;BME280;16902;50.816;12.828;2023-12-20T17:45:41;97144.13;;;4.28;100.00
30081;BME280;16902;50.816;12.828;2023-12-20T17:50:45;97141.88;;;4.25;100.00
30081;BME280;16902;50.816;12.828;2023-12-20T17:55:47;97141.06;;;4.24;100.00
30081;BME280;16902;50.816;12.828;2023-12-20T18:00:48;97136.06;;;4.23;100.00
30081;BME280;16902;50.816;12.828;2023-12-20T18:05:50;97148.44;;;4.19;100.00
30081;BME280;16902;50.816;12.828;2023-12-20T18:10:52;97156.50;;;4.16;100.00
30081;BME280;16902;50.816;12.828;2023-12-20T18:15:54;97148.78;;;4.16;100.00
30081;BME280;16902;50.816;12.828;2023-12-20T18:20:55;97156.16;;;4.11;100.00
30081;BME280;16902;50.816;12.828;2023-12-20T18:25:59;97161.44;;;4.09;100.00
30081;BME280;16902;50.816;12.828;2023-12-20T18:31:00;97180.44;;;4.08;100.00
30081;BME280;16902;50.816;12.828;2023-12-20T18:36:03;97155.31;;;4.02;100.00
30081;BME280;16902;50.816;12.828;2023-12-20T18:41:05;97159.13;;;3.98;100.00
30081;BME280;16902;50.816;12.828;2023-12-20T18:46:07;97164.00;;;4.01;100.00
30081;BME280;16902;50.816;12.828;2023-12-20T18:51:09;97163.84;;;4.03;100.00
30081;BME280;16902;50.816;12.828;2023-12-20T18:56:11;97161.91;;;4.05;100.00
30081;BME280;16902;50.816;12.828;2023-12-20T19:01:13;97166.09;;;4.06;100.00
30081;BME280;16902;50.816;12.828;2023-12-20T19:06:15;97155.94;;;4.04;100.00
30081;BME280;16902;50.816;12.828;2023-12-20T19:11:16;97143.53;;;4.00;100.00
30081;BME280;16902;50.816;12.828;2023-12-20T19:16:19;97138.03;;;3.95;100.00
30081;BME280;16902;50.816;12.828;2023-12-20T19:21:21;97139.75;;;3.86;100.00
30081;BME280;16902;50.816;12.828;2023-12-20T19:26:23;97134.75;;;3.84;100.00
30081;BME280;16902;50.816;12.828;2023-12-20T19:31:24;97130.25;;;3.86;100.00
30081;BME280;16902;50.816;12.828;2023-12-20T19:36:26;97119.31;;;3.84;100.00
30081;BME280;16902;50.816;12.828;2023-12-20T19:41:28;97118.22;;;3.87;100.00
30081;BME280;16902;50.816;12.828;2023-12-20T19:46:30;97129.59;;;3.84;100.00
30081;BME280;16902;50.816;12.828;2023-12-20T19:51:31;97113.66;;;3.81;100.00
30081;BME280;16902;50.816;12.828;2023-12-20T19:56:33;97109.16;;;3.83;100.00
30081;BME280;16902;50.816;12.828;2023-12-20T20:01:35;97094.06;;;3.88;100.00
30081;BME280;16902;50.816;12.828;2023-12-20T20:06:40;97098.09;;;3.91;100.00
30081;BME280;16902;50.816;12.828;2023-12-20T20:11:42;97076.19;;;3.86;100.00
30081;BME280;16902;50.816;12.828;2023-12-20T20:16:44;97073.59;;;3.86;100.00
30081;BME280;16902;50.816;12.828;2023-12-20T20:21:46;97053.63;;;3.80;100.00
30081;BME280;16902;50.816;12.828;2023-12-20T20:26:48;97056.53;;;3.77;100.00
30081;BME280;16902;50.816;12.828;2023-12-20T20:31:50;97062.31;;;3.79;100.00
30081;BME280;16902;50.816;12.828;2023-12-20T20:36:52;97051.91;;;3.89;100.00
30081;BME280;16902;50.816;12.828;2023-12-20T20:41:53;97073.47;;;3.96;100.00
30081;BME280;16902;50.816;12.828;2023-12-20T20:46:55;97070.16;;;4.04;100.00
30081;BME280;16902;50.816;12.828;2023-12-20T20:51:57;97056.28;;;4.05;100.00
30081;BME280;16902;50.816;12.828;2023-12-20T20:56:59;97050.34;;;4.04;100.00
30081;BME280;16902;50.816;12.828;2023-12-20T21:02:01;97061.94;;;4.08;100.00
30081;BME280;16902;50.816;12.828;2023-12-20T21:07:04;97042.31;;;4.07;100.00
30081;BME280;16902;50.816;12.828;2023-12-20T21:12:06;97041.19;;;4.10;100.00
30081;BME280;16902;50.816;12.828;2023-12-20T21:17:08;97010.94;;;4.12;100.00
30081;BME280;16902;50.816;12.828;2023-12-20T21:22:09;97007.41;;;4.13;100.00
30081;BME280;16902;50.816;12.828;2023-12-20T21:27:11;96989.34;;;4.13;100.00
30081;BME280;16902;50.816;12.828;2023-12-20T21:32:13;96983.72;;;4.09;100.00
30081;BME280;16902;50.816;12.828;2023-12-20T21:37:15;96983.72;;;4.09;100.00
30081;BME280;16902;50.816;12.828;2023-12-20T21:42:17;96980.50;;;4.07;100.00
30081;BME280;16902;50.816;12.828;2023-12-20T21:47:19;96974.38;;;4.08;100.00
30081;BME280;16902;50.816;12.828;2023-12-20T21:52:21;96971.63;;;4.10;100.00
30081;BME280;16902;50.816;12.828;2023-12-20T21:57:23;96956.53;;;4.07;100.00
30081;BME280;16902;50.816;12.828;2023-12-20T22:02:25;96951.66;;;3.96;100.00
30081;BME280;16902;50.816;12.828;2023-12-20T22:07:27;96937.00;;;3.96;100.00
30081;BME280;16902;50.816;12.828;2023-12-20T22:12:29;96941.19;;;3.89;100.00
30081;BME280;16902;50.816;12.828;2023-12-20T22:17:30;96936.19;;;3.88;100.00
30081;BME280;16902;50.816;12.828;2023-12-20T22:22:32;96930.88;;;3.89;100.00
30081;BME280;16902;50.816;12.828;2023-12-20T22:27:34;96923.50;;;3.94;100.00
30081;BME280;16902;50.816;12.828;2023-12-20T22:32:36;96903.38;;;3.98;100.00
30081;BME280;16902;50.816;12.828;2023-12-20T22:37:40;96892.28;;;3.97;100.00
30081;BME280;16902;50.816;12.828;2023-12-20T22:42:43;96878.13;;;4.01;100.00
30081;BME280;16902;50.816;12.828;2023-12-20T22:47:45;96870.06;;;4.04;100.00
30081;BME280;16902;50.816;12.828;2023-12-20T22:52:48;96838.19;;;4.05;100.00
30081;BME280;16902;50.816;12.828;2023-12-20T22:57:50;96839.78;;;4.15;100.00
30081;BME280;16902;50.816;12.828;2023-12-20T23:02:52;96824.03;;;4.18;100.00
30081;BME280;16902;50.816;12.828;2023-12-20T23:07:54;96822.88;;;4.20;100.00
30081;BME280;16902;50.816;12.828;2023-12-20T23:12:56;96814.22;;;4.21;100.00
30081;BME280;16902;50.816;12.828;2023-12-20T23:17:58;96786.00;;;4.20;100.00
30081;BME280;16902;50.816;12.828;2023-12-20T23:23:01;96773.63;;;4.23;100.00
30081;BME280;16902;50.816;12.828;2023-12-20T23:28:03;96780.06;;;4.27;100.00
30081;BME280;16902;50.816;12.828;2023-12-20T23:33:06;96765.84;;;4.39;100.00
30081;BME280;16902;50.816;12.828;2023-12-20T23:38:08;96745.22;;;4.39;100.00
30081;BME280;16902;50.816;12.828;2023-12-20T23:43:10;96762.00;;;4.35;100.00
30081;BME280;16902;50.816;12.828;2023-12-20T23:48:12;96765.72;;;4.33;100.00
30081;BME280;16902;50.816;12.828;2023-12-20T23:53:15;96746.56;;;4.27;100.00
30081;BME280;16902;50.816;12.828;2023-12-20T23:58:17;96726.75;;;4.20;100.00
